sensor_id;sensor_type;location;lat;lon;timestamp;P1;durP1;ratioP1;P2;durP2;ratioP2
50853;SDS011;44154;45.506;-122.806;2023-04-01T00:01:44;0.30;;;0.10;;
50853;SDS011;44154;45.506;-122.806;2023-04-01T00:04:10;0.32;;;0.13;;
50853;SDS011;44154;45.506;-122.806;2023-04-01T00:06:36;0.47;;;0.20;;
50853;SDS011;44154;45.506;-122.806;2023-04-01T00:09:02;0.38;;;0.10;;
50853;SDS011;44154;45.506;-122.806;2023-04-01T00:11:29;0.10;;;0.10;;
50853;SDS011;44154;45.506;-122.806;2023-04-01T00:13:55;0.60;;;0.20;;
50853;SDS011;44154;45.506;-122.806;2023-04-01T00:16:22;0.20;;;0.10;;
50853;SDS011;44154;45.506;-122.806;2023-04-01T00:18:48;0.15;;;0.10;;
50853;SDS011;44154;45.506;-122.806;2023-04-01T00:21:15;1.10;;;0.20;;
50853;SDS011;44154;45.506;-122.806;2023-04-01T00:23:42;1.35;;;0.20;;
50853;SDS011;44154;45.506;-122.806;2023-04-01T00:26:08;0.90;;;0.20;;
50853;SDS011;44154;45.506;-122.806;2023-04-01T00:28:35;0.60;;;0.20;;
50853;SDS011;44154;45.506;-122.806;2023-04-01T00:31:05;0.75;;;0.20;;
50853;SDS011;44154;45.506;-122.806;2023-04-01T00:33:32;0.50;;;0.10;;
50853;SDS011;44154;45.506;-122.806;2023-04-01T00:36:05;0.45;;;0.28;;
50853;SDS011;44154;45.506;-122.806;2023-04-01T00:38:42;0.65;;;0.20;;
50853;SDS011;44154;45.506;-122.806;2023-04-01T00:41:09;0.40;;;0.20;;
50853;SDS011;44154;45.506;-122.806;2023-04-01T00:43:39;0.55;;;0.20;;
50853;SDS011;44154;45.506;-122.806;2023-04-01T00:46:06;0.55;;;0.10;;
50853;SDS011;44154;45.506;-122.806;2023-04-01T00:48:33;0.77;;;0.20;;
50853;SDS011;44154;45.506;-122.806;2023-04-01T00:51:04;1.20;;;0.17;;
50853;SDS011;44154;45.506;-122.806;2023-04-01T00:53:31;0.98;;;0.10;;
50853;SDS011;44154;45.506;-122.806;2023-04-01T00:56:01;1.15;;;0.10;;
50853;SDS011;44154;45.506;-122.806;2023-04-01T00:58:32;0.77;;;0.10;;
50853;SDS011;44154;45.506;-122.806;2023-04-01T01:01:02;0.50;;;0.10;;
50853;SDS011;44154;45.506;-122.806;2023-04-01T01:03:28;2.20;;;0.20;;
50853;SDS011;44154;45.506;-122.806;2023-04-01T01:11:17;2.10;;;0.73;;
50853;SDS011;44154;45.506;-122.806;2023-04-01T01:13:55;0.88;;;0.22;;
50853;SDS011;44154;45.506;-122.806;2023-04-01T01:16:35;2.83;;;0.43;;
50853;SDS011;44154;45.506;-122.806;2023-04-01T01:21:49;5.43;;;0.80;;
50853;SDS011;44154;45.506;-122.806;2023-04-01T01:24:28;6.38;;;1.20;;
50853;SDS011;44154;45.506;-122.806;2023-04-01T01:37:39;4.07;;;1.90;;
50853;SDS011;44154;45.506;-122.806;2023-04-01T01:40:09;3.75;;;1.30;;
50853;SDS011;44154;45.506;-122.806;2023-04-01T01:42:38;7.43;;;1.67;;
50853;SDS011;44154;45.506;-122.806;2023-04-01T01:45:08;5.35;;;1.40;;
50853;SDS011;44154;45.506;-122.806;2023-04-01T01:47:38;5.30;;;0.93;;
50853;SDS011;44154;45.506;-122.806;2023-04-01T01:50:06;7.13;;;2.50;;
50853;SDS011;44154;45.506;-122.806;2023-04-01T01:52:33;5.97;;;1.35;;
50853;SDS011;44154;45.506;-122.806;2023-04-01T01:54:59;8.52;;;2.70;;
50853;SDS011;44154;45.506;-122.806;2023-04-01T01:57:29;10.93;;;3.80;;
50853;SDS011;44154;45.506;-122.806;2023-04-01T02:00:09;13.02;;;4.00;;
50853;SDS011;44154;45.506;-122.806;2023-04-01T02:02:42;7.82;;;4.10;;
50853;SDS011;44154;45.506;-122.806;2023-04-01T02:05:11;10.52;;;3.70;;
50853;SDS011;44154;45.506;-122.806;2023-04-01T02:07:44;10.73;;;4.07;;
50853;SDS011;44154;45.506;-122.806;2023-04-01T02:10:16;8.98;;;3.53;;
50853;SDS011;44154;45.506;-122.806;2023-04-01T02:12:45;7.88;;;3.10;;
50853;SDS011;44154;45.506;-122.806;2023-04-01T02:15:13;8.45;;;3.17;;
50853;SDS011;44154;45.506;-122.806;2023-04-01T02:17:44;6.68;;;2.75;;
50853;SDS011;44154;45.506;-122.806;2023-04-01T02:20:17;8.73;;;3.15;;
50853;SDS011;44154;45.506;-122.806;2023-04-01T02:22:48;6.65;;;2.95;;
50853;SDS011;44154;45.506;-122.806;2023-04-01T02:25:22;5.60;;;1.98;;
50853;SDS011;44154;45.506;-122.806;2023-04-01T02:27:52;5.88;;;1.65;;
50853;SDS011;44154;45.506;-122.806;2023-04-01T02:30:20;4.25;;;1.70;;
50853;SDS011;44154;45.506;-122.806;2023-04-01T02:32:47;6.65;;;1.73;;
50853;SDS011;44154;45.506;-122.806;2023-04-01T02:35:15;3.35;;;1.50;;
50853;SDS011;44154;45.506;-122.806;2023-04-01T02:37:43;6.28;;;1.75;;
50853;SDS011;44154;45.506;-122.806;2023-04-01T02:40:14;5.28;;;1.77;;
50853;SDS011;44154;45.506;-122.806;2023-04-01T02:42:41;3.78;;;1.67;;
50853;SDS011;44154;45.506;-122.806;2023-04-01T02:45:09;4.85;;;1.50;;
50853;SDS011;44154;45.506;-122.806;2023-04-01T02:47:35;4.90;;;1.58;;
50853;SDS011;44154;45.506;-122.806;2023-04-01T02:50:02;4.13;;;1.45;;
50853;SDS011;44154;45.506;-122.806;2023-04-01T02:52:29;4.80;;;1.38;;
50853;SDS011;44154;45.506;-122.806;2023-04-01T02:54:56;10.85;;;1.85;;
50853;SDS011;44154;45.506;-122.806;2023-04-01T02:57:23;4.90;;;1.40;;
50853;SDS011;44154;45.506;-122.806;2023-04-01T02:59:49;4.22;;;1.23;;
50853;SDS011;44154;45.506;-122.806;2023-04-01T03:02:16;7.88;;;1.88;;
50853;SDS011;44154;45.506;-122.806;2023-04-01T03:04:42;3.85;;;1.25;;
50853;SDS011;44154;45.506;-122.806;2023-04-01T03:07:09;4.82;;;1.50;;
50853;SDS011;44154;45.506;-122.806;2023-04-01T03:09:36;4.32;;;1.40;;
50853;SDS011;44154;45.506;-122.806;2023-04-01T03:12:02;4.57;;;1.30;;
50853;SDS011;44154;45.506;-122.806;2023-04-01T03:14:29;6.20;;;1.10;;
50853;SDS011;44154;45.506;-122.806;2023-04-01T03:16:55;2.35;;;0.90;;
50853;SDS011;44154;45.506;-122.806;2023-04-01T03:19:21;3.80;;;1.50;;
50853;SDS011;44154;45.506;-122.806;2023-04-01T03:21:47;4.05;;;1.27;;
50853;SDS011;44154;45.506;-122.806;2023-04-01T03:24:13;5.97;;;1.67;;
50853;SDS011;44154;45.506;-122.806;2023-04-01T03:26:39;5.82;;;2.17;;
50853;SDS011;44154;45.506;-122.806;2023-04-01T03:29:05;7.32;;;4.72;;
50853;SDS011;44154;45.506;-122.806;2023-04-01T03:31:31;8.75;;;6.20;;
50853;SDS011;44154;45.506;-122.806;2023-04-01T03:33:57;7.28;;;4.30;;
50853;SDS011;44154;45.506;-122.806;2023-04-01T03:36:24;8.00;;;4.50;;
50853;SDS011;44154;45.506;-122.806;2023-04-01T03:38:50;7.75;;;4.07;;
50853;SDS011;44154;45.506;-122.806;2023-04-01T03:41:16;5.72;;;3.80;;
50853;SDS011;44154;45.506;-122.806;2023-04-01T03:43:43;5.65;;;3.50;;
50853;SDS011;44154;45.506;-122.806;2023-04-01T03:46:10;6.40;;;3.90;;
50853;SDS011;44154;45.506;-122.806;2023-04-01T03:48:36;5.95;;;3.40;;
50853;SDS011;44154;45.506;-122.806;2023-04-01T03:51:06;7.13;;;3.53;;
50853;SDS011;44154;45.506;-122.806;2023-04-01T03:53:33;5.28;;;2.72;;
50853;SDS011;44154;45.506;-122.806;2023-04-01T03:56:03;6.65;;;2.78;;
50853;SDS011;44154;45.506;-122.806;2023-04-01T03:58:30;5.35;;;2.80;;
50853;SDS011;44154;45.506;-122.806;2023-04-01T04:00:56;6.22;;;2.80;;
50853;SDS011;44154;45.506;-122.806;2023-04-01T04:03:22;5.55;;;2.95;;
50853;SDS011;44154;45.506;-122.806;2023-04-01T04:05:48;4.78;;;2.58;;
50853;SDS011;44154;45.506;-122.806;2023-04-01T04:08:15;3.75;;;2.20;;
50853;SDS011;44154;45.506;-122.806;2023-04-01T04:10:42;4.45;;;2.10;;
50853;SDS011;44154;45.506;-122.806;2023-04-01T04:13:08;4.35;;;1.98;;
50853;SDS011;44154;45.506;-122.806;2023-04-01T04:15:35;4.10;;;2.53;;
50853;SDS011;44154;45.506;-122.806;2023-04-01T04:18:01;3.72;;;1.90;;
50853;SDS011;44154;45.506;-122.806;2023-04-01T04:20:27;5.22;;;2.25;;
50853;SDS011;44154;45.506;-122.806;2023-04-01T04:22:53;5.30;;;2.38;;
50853;SDS011;44154;45.506;-122.806;2023-04-01T04:25:19;2.65;;;1.80;;
50853;SDS011;44154;45.506;-122.806;2023-04-01T04:27:45;2.15;;;1.25;;
50853;SDS011;44154;45.506;-122.806;2023-04-01T04:30:12;2.97;;;1.08;;
50853;SDS011;44154;45.506;-122.806;2023-04-01T04:32:38;2.28;;;0.80;;
50853;SDS011;44154;45.506;-122.806;2023-04-01T04:35:05;2.03;;;0.90;;
50853;SDS011;44154;45.506;-122.806;2023-04-01T04:37:32;3.17;;;1.13;;
50853;SDS011;44154;45.506;-122.806;2023-04-01T04:39:58;1.48;;;1.00;;
50853;SDS011;44154;45.506;-122.806;2023-04-01T04:42:24;1.60;;;0.80;;
50853;SDS011;44154;45.506;-122.806;2023-04-01T04:44:50;1.88;;;0.90;;
50853;SDS011;44154;45.506;-122.806;2023-04-01T04:47:16;1.85;;;0.90;;
50853;SDS011;44154;45.506;-122.806;2023-04-01T04:49:42;1.52;;;0.70;;
50853;SDS011;44154;45.506;-122.806;2023-04-01T04:52:09;3.22;;;0.98;;
50853;SDS011;44154;45.506;-122.806;2023-04-01T04:54:35;1.65;;;0.90;;
50853;SDS011;44154;45.506;-122.806;2023-04-01T04:57:01;1.23;;;0.70;;
50853;SDS011;44154;45.506;-122.806;2023-04-01T04:59:27;1.58;;;0.80;;
50853;SDS011;44154;45.506;-122.806;2023-04-01T05:01:53;1.27;;;0.70;;
50853;SDS011;44154;45.506;-122.806;2023-04-01T05:04:20;2.22;;;0.80;;
50853;SDS011;44154;45.506;-122.806;2023-04-01T05:06:46;1.13;;;0.70;;
50853;SDS011;44154;45.506;-122.806;2023-04-01T05:09:12;2.03;;;0.55;;
50853;SDS011;44154;45.506;-122.806;2023-04-01T05:11:38;1.35;;;0.50;;
50853;SDS011;44154;45.506;-122.806;2023-04-01T05:14:05;1.17;;;0.60;;
50853;SDS011;44154;45.506;-122.806;2023-04-01T05:16:31;1.48;;;0.50;;
50853;SDS011;44154;45.506;-122.806;2023-04-01T05:18:58;1.67;;;0.55;;
50853;SDS011;44154;45.506;-122.806;2023-04-01T05:21:24;1.38;;;0.60;;
50853;SDS011;44154;45.506;-122.806;2023-04-01T05:23:50;0.80;;;0.35;;
50853;SDS011;44154;45.506;-122.806;2023-04-01T05:26:17;1.20;;;0.50;;
50853;SDS011;44154;45.506;-122.806;2023-04-01T05:28:43;2.10;;;0.68;;
50853;SDS011;44154;45.506;-122.806;2023-04-01T05:31:09;2.65;;;1.00;;
50853;SDS011;44154;45.506;-122.806;2023-04-01T05:33:36;4.47;;;2.45;;
50853;SDS011;44154;45.506;-122.806;2023-04-01T05:36:09;6.82;;;4.20;;
50853;SDS011;44154;45.506;-122.806;2023-04-01T05:38:37;7.80;;;4.35;;
50853;SDS011;44154;45.506;-122.806;2023-04-01T05:41:03;4.90;;;3.10;;
50853;SDS011;44154;45.506;-122.806;2023-04-01T05:43:30;4.80;;;2.47;;
50853;SDS011;44154;45.506;-122.806;2023-04-01T05:45:56;5.43;;;2.40;;
50853;SDS011;44154;45.506;-122.806;2023-04-01T05:48:23;3.90;;;1.90;;
50853;SDS011;44154;45.506;-122.806;2023-04-01T05:50:49;3.03;;;2.13;;
50853;SDS011;44154;45.506;-122.806;2023-04-01T05:53:15;3.85;;;2.20;;
50853;SDS011;44154;45.506;-122.806;2023-04-01T05:55:41;3.78;;;2.10;;
50853;SDS011;44154;45.506;-122.806;2023-04-01T05:58:08;3.88;;;1.70;;
50853;SDS011;44154;45.506;-122.806;2023-04-01T06:00:34;5.95;;;1.98;;
50853;SDS011;44154;45.506;-122.806;2023-04-01T06:03:00;5.57;;;1.90;;
50853;SDS011;44154;45.506;-122.806;2023-04-01T06:05:30;3.63;;;1.65;;
50853;SDS011;44154;45.506;-122.806;2023-04-01T06:08:13;4.30;;;1.80;;
50853;SDS011;44154;45.506;-122.806;2023-04-01T06:11:28;3.05;;;1.63;;
50853;SDS011;44154;45.506;-122.806;2023-04-01T06:36:39;3.28;;;1.17;;
50853;SDS011;44154;45.506;-122.806;2023-04-01T06:47:52;33.88;;;23.55;;
50853;SDS011;44154;45.506;-122.806;2023-04-01T06:50:33;14.93;;;9.45;;
50853;SDS011;44154;45.506;-122.806;2023-04-01T06:53:25;15.63;;;9.75;;
50853;SDS011;44154;45.506;-122.806;2023-04-01T06:56:16;15.45;;;9.82;;
50853;SDS011;44154;45.506;-122.806;2023-04-01T07:01:33;15.15;;;9.65;;
50853;SDS011;44154;45.506;-122.806;2023-04-01T07:04:09;14.23;;;9.13;;
50853;SDS011;44154;45.506;-122.806;2023-04-01T07:06:59;13.35;;;8.73;;
50853;SDS011;44154;45.506;-122.806;2023-04-01T07:09:48;12.30;;;8.40;;
50853;SDS011;44154;45.506;-122.806;2023-04-01T07:14:43;14.60;;;7.82;;
50853;SDS011;44154;45.506;-122.806;2023-04-01T07:17:20;12.02;;;7.35;;
50853;SDS011;44154;45.506;-122.806;2023-04-01T07:22:54;12.52;;;7.75;;
50853;SDS011;44154;45.506;-122.806;2023-04-01T07:28:12;10.95;;;6.82;;
50853;SDS011;44154;45.506;-122.806;2023-04-01T07:36:20;5.15;;;3.42;;
50853;SDS011;44154;45.506;-122.806;2023-04-01T07:47:45;7.15;;;4.45;;
50853;SDS011;44154;45.506;-122.806;2023-04-01T07:56:11;5.72;;;3.55;;
50853;SDS011;44154;45.506;-122.806;2023-04-01T07:59:01;6.45;;;3.63;;
50853;SDS011;44154;45.506;-122.806;2023-04-01T08:01:45;5.63;;;3.20;;
50853;SDS011;44154;45.506;-122.806;2023-04-01T08:07:15;5.00;;;3.13;;
50853;SDS011;44154;45.506;-122.806;2023-04-01T08:20:51;4.10;;;2.10;;
50853;SDS011;44154;45.506;-122.806;2023-04-01T08:23:36;2.80;;;1.65;;
50853;SDS011;44154;45.506;-122.806;2023-04-01T08:26:10;3.42;;;1.77;;
50853;SDS011;44154;45.506;-122.806;2023-04-01T08:28:43;2.88;;;1.50;;
50853;SDS011;44154;45.506;-122.806;2023-04-01T08:34:21;3.05;;;1.90;;
50853;SDS011;44154;45.506;-122.806;2023-04-01T08:36:57;2.97;;;1.85;;
50853;SDS011;44154;45.506;-122.806;2023-04-01T08:39:42;2.95;;;1.80;;
50853;SDS011;44154;45.506;-122.806;2023-04-01T08:47:42;3.00;;;1.65;;
50853;SDS011;44154;45.506;-122.806;2023-04-01T08:50:26;2.47;;;1.35;;
50853;SDS011;44154;45.506;-122.806;2023-04-01T09:18:34;2.33;;;1.02;;
50853;SDS011;44154;45.506;-122.806;2023-04-01T09:34:54;1.70;;;0.70;;
50853;SDS011;44154;45.506;-122.806;2023-04-01T09:54:36;1.58;;;0.65;;
50853;SDS011;44154;45.506;-122.806;2023-04-01T09:57:41;2.35;;;1.00;;
50853;SDS011;44154;45.506;-122.806;2023-04-01T10:08:50;1.65;;;0.80;;
50853;SDS011;44154;45.506;-122.806;2023-04-01T10:17:08;2.40;;;0.60;;
50853;SDS011;44154;45.506;-122.806;2023-04-01T10:28:16;1.15;;;0.50;;
50853;SDS011;44154;45.506;-122.806;2023-04-01T10:36:53;5.30;;;0.88;;
50853;SDS011;44154;45.506;-122.806;2023-04-01T10:48:04;2.60;;;0.85;;
50853;SDS011;44154;45.506;-122.806;2023-04-01T10:51:13;3.00;;;0.85;;
50853;SDS011;44154;45.506;-122.806;2023-04-01T10:59:53;2.83;;;0.60;;
50853;SDS011;44154;45.506;-122.806;2023-04-01T11:02:45;2.08;;;0.70;;
50853;SDS011;44154;45.506;-122.806;2023-04-01T11:05:46;1.23;;;0.60;;
50853;SDS011;44154;45.506;-122.806;2023-04-01T11:14:30;1.88;;;0.40;;
50853;SDS011;44154;45.506;-122.806;2023-04-01T11:20:44;1.52;;;0.55;;
50853;SDS011;44154;45.506;-122.806;2023-04-01T11:28:25;1.40;;;0.50;;
50853;SDS011;44154;45.506;-122.806;2023-04-01T11:34:00;2.30;;;0.40;;
50853;SDS011;44154;45.506;-122.806;2023-04-01T11:48:03;1.38;;;0.40;;
50853;SDS011;44154;45.506;-122.806;2023-04-01T11:56:32;0.52;;;0.22;;
50853;SDS011;44154;45.506;-122.806;2023-04-01T12:13:22;1.00;;;0.17;;
50853;SDS011;44154;45.506;-122.806;2023-04-01T12:16:23;1.27;;;0.20;;
50853;SDS011;44154;45.506;-122.806;2023-04-01T12:24:47;0.90;;;0.43;;
50853;SDS011;44154;45.506;-122.806;2023-04-01T12:41:39;0.45;;;0.20;;
50853;SDS011;44154;45.506;-122.806;2023-04-01T12:50:19;0.65;;;0.25;;
50853;SDS011;44154;45.506;-122.806;2023-04-01T13:00:35;0.77;;;0.15;;
50853;SDS011;44154;45.506;-122.806;2023-04-01T13:03:25;0.80;;;0.30;;
50853;SDS011;44154;45.506;-122.806;2023-04-01T13:09:16;0.40;;;0.17;;
50853;SDS011;44154;45.506;-122.806;2023-04-01T13:20:23;0.57;;;0.20;;
50853;SDS011;44154;45.506;-122.806;2023-04-01T13:25:39;0.73;;;0.20;;
50853;SDS011;44154;45.506;-122.806;2023-04-01T13:35:46;0.30;;;0.20;;
50853;SDS011;44154;45.506;-122.806;2023-04-01T13:38:29;0.57;;;0.20;;
50853;SDS011;44154;45.506;-122.806;2023-04-01T13:41:01;0.40;;;0.15;;
50853;SDS011;44154;45.506;-122.806;2023-04-01T13:43:49;0.47;;;0.20;;
50853;SDS011;44154;45.506;-122.806;2023-04-01T13:46:26;1.27;;;0.10;;
50853;SDS011;44154;45.506;-122.806;2023-04-01T13:49:11;0.50;;;0.20;;
50853;SDS011;44154;45.506;-122.806;2023-04-01T14:00:25;1.15;;;0.13;;
50853;SDS011;44154;45.506;-122.806;2023-04-01T14:30:51;0.20;;;0.10;;
50853;SDS011;44154;45.506;-122.806;2023-04-01T14:39:21;0.73;;;0.20;;
50853;SDS011;44154;45.506;-122.806;2023-04-01T14:50:17;0.20;;;0.10;;
50853;SDS011;44154;45.506;-122.806;2023-04-01T14:52:59;0.65;;;0.10;;
50853;SDS011;44154;45.506;-122.806;2023-04-01T14:58:10;0.65;;;0.20;;
50853;SDS011;44154;45.506;-122.806;2023-04-01T15:03:14;1.63;;;0.30;;
50853;SDS011;44154;45.506;-122.806;2023-04-01T15:08:41;1.63;;;0.40;;
50853;SDS011;44154;45.506;-122.806;2023-04-01T15:22:17;0.70;;;0.20;;
50853;SDS011;44154;45.506;-122.806;2023-04-01T15:36:25;1.20;;;0.20;;
50853;SDS011;44154;45.506;-122.806;2023-04-01T15:39:20;1.35;;;0.22;;
50853;SDS011;44154;45.506;-122.806;2023-04-01T15:47:46;3.30;;;0.30;;
50853;SDS011;44154;45.506;-122.806;2023-04-01T15:50:41;1.85;;;0.38;;
50853;SDS011;44154;45.506;-122.806;2023-04-01T15:55:53;1.33;;;0.20;;
50853;SDS011;44154;45.506;-122.806;2023-04-01T16:01:10;1.98;;;0.20;;
50853;SDS011;44154;45.506;-122.806;2023-04-01T16:04:17;1.00;;;0.10;;
50853;SDS011;44154;45.506;-122.806;2023-04-01T16:09:53;2.20;;;0.30;;
50853;SDS011;44154;45.506;-122.806;2023-04-01T16:12:31;0.52;;;0.20;;
50853;SDS011;44154;45.506;-122.806;2023-04-01T16:15:24;1.38;;;0.30;;
50853;SDS011;44154;45.506;-122.806;2023-04-01T16:18:09;2.13;;;0.20;;
50853;SDS011;44154;45.506;-122.806;2023-04-01T16:20:56;1.05;;;0.20;;
50853;SDS011;44154;45.506;-122.806;2023-04-01T16:23:39;0.63;;;0.20;;
50853;SDS011;44154;45.506;-122.806;2023-04-01T16:26:28;0.73;;;0.20;;
50853;SDS011;44154;45.506;-122.806;2023-04-01T16:29:08;0.30;;;0.10;;
50853;SDS011;44154;45.506;-122.806;2023-04-01T16:43:48;3.65;;;0.22;;
50853;SDS011;44154;45.506;-122.806;2023-04-01T16:46:30;0.52;;;0.13;;
50853;SDS011;44154;45.506;-122.806;2023-04-01T16:49:07;1.92;;;0.22;;
50853;SDS011;44154;45.506;-122.806;2023-04-01T16:54:30;3.25;;;0.30;;
50853;SDS011;44154;45.506;-122.806;2023-04-01T16:59:54;1.70;;;0.38;;
50853;SDS011;44154;45.506;-122.806;2023-04-01T17:02:42;1.60;;;0.23;;
50853;SDS011;44154;45.506;-122.806;2023-04-01T17:05:36;1.73;;;0.20;;
50853;SDS011;44154;45.506;-122.806;2023-04-01T17:08:32;1.75;;;0.20;;
50853;SDS011;44154;45.506;-122.806;2023-04-01T17:13:36;1.40;;;0.30;;
50853;SDS011;44154;45.506;-122.806;2023-04-01T17:16:10;2.75;;;0.30;;
50853;SDS011;44154;45.506;-122.806;2023-04-01T17:27:39;1.45;;;0.25;;
50853;SDS011;44154;45.506;-122.806;2023-04-01T17:38:40;1.75;;;0.32;;
50853;SDS011;44154;45.506;-122.806;2023-04-01T17:41:46;1.13;;;0.20;;
50853;SDS011;44154;45.506;-122.806;2023-04-01T17:55:26;0.30;;;0.10;;
50853;SDS011;44154;45.506;-122.806;2023-04-01T17:58:16;1.40;;;0.20;;
50853;SDS011;44154;45.506;-122.806;2023-04-01T18:00:54;1.95;;;0.20;;
50853;SDS011;44154;45.506;-122.806;2023-04-01T18:09:04;0.57;;;0.30;;
50853;SDS011;44154;45.506;-122.806;2023-04-01T18:20:15;0.75;;;0.20;;
50853;SDS011;44154;45.506;-122.806;2023-04-01T18:25:47;0.25;;;0.10;;
50853;SDS011;44154;45.506;-122.806;2023-04-01T18:28:22;0.70;;;0.40;;
50853;SDS011;44154;45.506;-122.806;2023-04-01T18:33:25;0.82;;;0.10;;
50853;SDS011;44154;45.506;-122.806;2023-04-01T18:35:57;1.85;;;0.30;;
50853;SDS011;44154;45.506;-122.806;2023-04-01T18:38:45;0.50;;;0.20;;
50853;SDS011;44154;45.506;-122.806;2023-04-01T18:49:29;0.17;;;0.10;;
50853;SDS011;44154;45.506;-122.806;2023-04-01T18:52:09;0.20;;;0.10;;
50853;SDS011;44154;45.506;-122.806;2023-04-01T18:57:27;0.17;;;0.10;;
50853;SDS011;44154;45.506;-122.806;2023-04-01T19:00:06;1.60;;;0.20;;
50853;SDS011;44154;45.506;-122.806;2023-04-01T19:02:53;0.38;;;0.10;;
50853;SDS011;44154;45.506;-122.806;2023-04-01T19:05:29;0.75;;;0.20;;
50853;SDS011;44154;45.506;-122.806;2023-04-01T19:08:20;0.10;;;0.10;;
50853;SDS011;44154;45.506;-122.806;2023-04-01T19:16:53;0.10;;;0.10;;
50853;SDS011;44154;45.506;-122.806;2023-04-01T19:19:53;0.45;;;0.10;;
50853;SDS011;44154;45.506;-122.806;2023-04-01T19:25:21;0.40;;;0.20;;
50853;SDS011;44154;45.506;-122.806;2023-04-01T19:36:16;0.50;;;0.15;;
50853;SDS011;44154;45.506;-122.806;2023-04-01T19:47:22;0.30;;;0.10;;
50853;SDS011;44154;45.506;-122.806;2023-04-01T19:52:51;0.60;;;0.15;;
50853;SDS011;44154;45.506;-122.806;2023-04-01T20:03:50;0.60;;;0.10;;
50853;SDS011;44154;45.506;-122.806;2023-04-01T20:06:35;0.35;;;0.10;;
50853;SDS011;44154;45.506;-122.806;2023-04-01T20:17:26;0.45;;;0.20;;
50853;SDS011;44154;45.506;-122.806;2023-04-01T20:20:27;1.90;;;0.20;;
50853;SDS011;44154;45.506;-122.806;2023-04-01T20:29:35;1.20;;;0.20;;
50853;SDS011;44154;45.506;-122.806;2023-04-01T20:31:34;2.67;;;0.40;;
50853;SDS011;44154;45.506;-122.806;2023-04-01T20:34:26;3.80;;;0.40;;
50853;SDS011;44154;45.506;-122.806;2023-04-01T20:42:49;3.28;;;0.28;;
50853;SDS011;44154;45.506;-122.806;2023-04-01T20:51:15;1.55;;;0.20;;
50853;SDS011;44154;45.506;-122.806;2023-04-01T20:53:58;2.08;;;0.57;;
50853;SDS011;44154;45.506;-122.806;2023-04-01T20:57:14;2.30;;;0.30;;
50853;SDS011;44154;45.506;-122.806;2023-04-01T21:05:55;1.25;;;0.22;;
50853;SDS011;44154;45.506;-122.806;2023-04-01T21:45:07;2.45;;;0.47;;
50853;SDS011;44154;45.506;-122.806;2023-04-01T22:06:51;1.98;;;0.40;;
50853;SDS011;44154;45.506;-122.806;2023-04-01T22:12:42;2.15;;;0.35;;
50853;SDS011;44154;45.506;-122.806;2023-04-01T22:15:17;4.07;;;0.40;;
50853;SDS011;44154;45.506;-122.806;2023-04-01T22:18:04;2.00;;;0.40;;
50853;SDS011;44154;45.506;-122.806;2023-04-01T22:20:48;3.65;;;0.52;;
50853;SDS011;44154;45.506;-122.806;2023-04-01T22:23:29;3.08;;;0.32;;
50853;SDS011;44154;45.506;-122.806;2023-04-01T22:31:49;2.28;;;0.50;;
50853;SDS011;44154;45.506;-122.806;2023-04-01T22:34:27;3.28;;;0.40;;
50853;SDS011;44154;45.506;-122.806;2023-04-01T22:40:00;5.53;;;0.50;;
50853;SDS011;44154;45.506;-122.806;2023-04-01T22:42:44;3.08;;;0.20;;
50853;SDS011;44154;45.506;-122.806;2023-04-01T22:48:37;3.45;;;0.30;;
50853;SDS011;44154;45.506;-122.806;2023-04-01T22:56:46;1.17;;;0.30;;
50853;SDS011;44154;45.506;-122.806;2023-04-01T22:59:37;2.58;;;0.45;;
50853;SDS011;44154;45.506;-122.806;2023-04-01T23:02:33;1.92;;;0.50;;
50853;SDS011;44154;45.506;-122.806;2023-04-01T23:05:05;2.97;;;0.35;;
50853;SDS011;44154;45.506;-122.806;2023-04-01T23:12:58;1.75;;;0.47;;
50853;SDS011;44154;45.506;-122.806;2023-04-01T23:15:27;2.28;;;0.38;;
50853;SDS011;44154;45.506;-122.806;2023-04-01T23:26:15;0.55;;;0.20;;
50853;SDS011;44154;45.506;-122.806;2023-04-01T23:29:03;1.57;;;0.20;;
50853;SDS011;44154;45.506;-122.806;2023-04-01T23:31:43;1.23;;;0.40;;
50853;SDS011;44154;45.506;-122.806;2023-04-01T23:36:43;0.52;;;0.20;;
50853;SDS011;44154;45.506;-122.806;2023-04-01T23:39:32;1.17;;;0.20;;
50853;SDS011;44154;45.506;-122.806;2023-04-01T23:45:14;1.42;;;0.10;;
50853;SDS011;44154;45.506;-122.806;2023-04-01T23:47:45;3.17;;;0.45;;
50853;SDS011;44154;45.506;-122.806;2023-04-01T23:50:19;0.85;;;0.20;;
50853;SDS011;44154;45.506;-122.806;2023-04-01T23:52:51;0.50;;;0.20;;
50853;SDS011;44154;45.506;-122.806;2023-04-01T23:55:27;0.65;;;0.20;;
50853;SDS011;44154;45.506;-122.806;2023-04-01T23:58:00;0.30;;;0.20;;
